Asukamaru — JG5536 — position and weather

sailwx.info

Track history (hours):
 
Tides and Currents Weather Stations Pressure Air Temp Water Temp Dewpoint Dewpoint Depression Visibility Wind Speed Wind Dir Waves Ship Positions

Asukamaru

Last reported at 2016-May-29 03:33 UTC. Time now 2016-May-29 03:51 UTC.
Position N 35°38' E 139°45'.

Length 31 m; draft 3 m.

Type: Tug. MMSI: 431001145.

Date/timePositionNaut miles runAvg speedWind from/ knotsBaromVisibWave heightAir tempDewpointWater temp
2016-May-29 03:33N 35°38' E 139°45'0 0.0
2016-May-29 02:34N 35°38' E 139°45'0 0.0
2016-May-29 01:34N 35°38' E 139°45'0 0.0
2016-May-29 00:33N 35°38' E 139°45'0 0.0
2016-May-28 23:33N 35°38' E 139°45'2 1.9
2016-May-28 22:34N 35°36' E 139°46'1 1.1
2016-May-28 21:34N 35°35' E 139°47'1 0.9
2016-May-28 20:33N 35°36' E 139°47'2 2.5
2016-May-28 19:34N 35°38' E 139°45'0 0.0
2016-May-28 18:33N 35°38' E 139°45'0 0.0
2016-May-28 17:34N 35°38' E 139°45'0 0.0
2016-May-28 16:33N 35°38' E 139°45'0 0.0
2016-May-28 15:33N 35°38' E 139°45'0 0.0
2016-May-28 14:33N 35°38' E 139°45'0 0.0
2016-May-28 13:33N 35°38' E 139°45'0 0.0
2016-May-28 12:34N 35°38' E 139°45'0 0.0
2016-May-28 11:34N 35°38' E 139°45'0 0.0
2016-May-28 10:33N 35°38' E 139°45'0 0.0
2016-May-28 09:33N 35°38' E 139°45'0 0.0
2016-May-28 08:33N 35°38' E 139°45'0 0.0
2016-May-28 07:34N 35°38' E 139°45'0 0.0
2016-May-28 06:33N 35°38' E 139°45'0 0.0
2016-May-28 05:33N 35°38' E 139°45'0 0.0
2016-May-28 04:33N 35°38' E 139°45'0 0.0
2016-May-28 03:33N 35°38' E 139°45'0 0.0
2016-May-28 02:33N 35°38' E 139°45'0 0.0
2016-May-28 01:34N 35°38' E 139°45'0 0.0
2016-May-28 00:34N 35°38' E 139°45'0 0.0
2016-May-27 23:34N 35°38' E 139°45'3 3.5
2016-May-27 22:34N 35°35' E 139°48'3 3.5
2016-May-27 21:34N 35°38' E 139°45'0 0.0
2016-May-27 20:33N 35°38' E 139°45'0 0.0
2016-May-27 19:34N 35°38' E 139°45'0 0.0
2016-May-27 18:33N 35°38' E 139°45'0 0.0
2016-May-27 17:33N 35°38' E 139°45'0 0.0
2016-May-27 16:33N 35°38' E 139°45'0 0.0
2016-May-27 15:33N 35°38' E 139°45'0 0.0
2016-May-27 14:34N 35°38' E 139°45'0 0.0
2016-May-27 13:34N 35°38' E 139°46'0 0.0
2016-May-27 12:34N 35°38' E 139°45'0 0.0
2016-May-27 11:34N 35°38' E 139°45'0 0.0
2016-May-27 10:33N 35°38' E 139°45'0 0.0
2016-May-27 09:33N 35°38' E 139°45'2 1.7
2016-May-27 08:33N 35°37' E 139°46'1 1.0
2016-May-27 07:33N 35°36' E 139°47'1 1.0
2016-May-27 06:33N 35°35' E 139°48'2 1.8
2016-May-27 05:33N 35°34' E 139°49'5 5.2
2016-May-27 04:34N 35°38' E 139°45'0 0.0
2016-May-27 03:33N 35°38' E 139°45'0 0.0
2016-May-27 02:33N 35°38' E 139°45'0 0.0
2016-May-27 01:33N 35°38' E 139°45'0 0.0
2016-May-27 00:34N 35°38' E 139°45'0 0.0
2016-May-26 23:34N 35°38' E 139°45'0 0.0
2016-May-26 22:33N 35°38' E 139°45'0 0.0
2016-May-26 21:33N 35°38' E 139°45'0 0.0
2016-May-26 20:33N 35°38' E 139°45'0 0.0
2016-May-26 19:33N 35°38' E 139°45'0 0.0
2016-May-26 18:33N 35°38' E 139°45'0 0.0
2016-May-26 17:33N 35°38' E 139°45'0 0.0
2016-May-26 16:34N 35°38' E 139°45'0 0.0
2016-May-26 15:33N 35°38' E 139°45'0 0.0
2016-May-26 14:33N 35°38' E 139°45'0 0.0
2016-May-26 13:33N 35°38' E 139°45'0 0.0
2016-May-26 12:34N 35°38' E 139°45'0 0.0
2016-May-26 11:34N 35°38' E 139°45'3 3.1
2016-May-26 10:34N 35°35' E 139°47'1 0.6
2016-May-26 09:34N 35°35' E 139°47'1 1.2
2016-May-26 08:33N 35°37' E 139°47'1 0.5
2016-May-26 07:34N 35°36' E 139°47'3 2.5
2016-May-26 06:34N 35°34' E 139°49'4 3.6
2016-May-26 05:33N 35°37' E 139°46'2 1.5
2016-May-26 04:34N 35°38' E 139°45'0 0.0
2016-May-26 03:34N 35°38' E 139°45'0 0.0
2016-May-26 02:33N 35°38' E 139°45'0 0.0
2016-May-26 01:34N 35°38' E 139°45'0 0.0
2016-May-26 00:34N 35°38' E 139°45'0 0.0
2016-May-25 23:33N 35°38' E 139°45'2 2.2
2016-May-25 22:33N 35°36' E 139°47'1 0.6
2016-May-25 21:33N 35°36' E 139°48'1 1.1
2016-May-25 20:34N 35°37' E 139°47'1 1.0
2016-May-25 19:33N 35°36' E 139°47'3 2.6
2016-May-25 18:34N 35°38' E 139°45'0 0.0
2016-May-25 17:33N 35°38' E 139°45'0 0.0
2016-May-25 16:34N 35°38' E 139°45'0 0.0
2016-May-25 15:33N 35°38' E 139°45'0 0.0
2016-May-25 14:33N 35°38' E 139°45'0 0.0
2016-May-25 13:34N 35°38' E 139°45'0 0.0
2016-May-25 12:33N 35°38' E 139°45'0 0.0
2016-May-25 11:33N 35°38' E 139°45'0 0.0
2016-May-25 10:33N 35°38' E 139°45'0 0.0
2016-May-25 09:33N 35°38' E 139°45'0 0.0
2016-May-25 08:33N 35°38' E 139°45'0 0.0
2016-May-25 07:29N 35°38' E 139°45'0 0.0
2016-May-25 05:33N 35°38' E 139°45'0 0.0
2016-May-25 04:33N 35°38' E 139°45'0 0.0
2016-May-25 03:33N 35°38' E 139°45'0 0.0
2016-May-25 02:33N 35°38' E 139°45'0 0.0
2016-May-25 01:33N 35°38' E 139°45'0 0.0
2016-May-25 00:34N 35°38' E 139°45'0 0.0
2016-May-24 23:33N 35°38' E 139°45'0 0.0
2016-May-24 22:34N 35°38' E 139°45'0 0.0
2016-May-24 21:33N 35°38' E 139°45'0 0.0
2016-May-24 20:33N 35°38' E 139°45'0 0.0
2016-May-24 19:33N 35°38' E 139°45'0 0.0
2016-May-24 18:34N 35°38' E 139°45'0 0.0
2016-May-24 17:33N 35°38' E 139°45'0 0.0
2016-May-24 16:33N 35°38' E 139°45'0 0.0
2016-May-24 15:33N 35°38' E 139°45'0 0.0
2016-May-24 14:33N 35°38' E 139°45'0 0.0
2016-May-24 13:33N 35°38' E 139°45'0 0.0
2016-May-24 12:34N 35°38' E 139°45'0 0.0
2016-May-24 11:34N 35°38' E 139°45'0 0.0
2016-May-24 10:33N 35°38' E 139°45'0 0.0
2016-May-24 09:34N 35°38' E 139°45'1 0.9
2016-May-24 08:33N 35°37' E 139°46'1 0.9
2016-May-24 07:33N 35°38' E 139°45'0 0.0
2016-May-24 06:34N 35°38' E 139°45'0 0.0
2016-May-24 05:34N 35°38' E 139°45'0 0.0
2016-May-24 04:34N 35°38' E 139°45'0 0.0
2016-May-24 03:33N 35°38' E 139°45'0 0.0
2016-May-24 02:34N 35°38' E 139°45'0 0.0
2016-May-24 01:33N 35°38' E 139°45'0 0.0
2016-May-24 00:33N 35°38' E 139°45'0 0.0
2016-May-23 23:33N 35°38' E 139°45'1 0.8
2016-May-23 22:33N 35°37' E 139°46'5 4.5
2016-May-23 21:33N 35°34' E 139°49'4 3.8
2016-May-23 20:33N 35°37' E 139°46'2 1.5
2016-May-23 19:34N 35°38' E 139°45'0 0.0
2016-May-23 18:34N 35°38' E 139°45'0 0.0
2016-May-23 17:34N 35°38' E 139°45'0 0.0
2016-May-23 16:34N 35°38' E 139°45'0 0.0
2016-May-23 15:34N 35°38' E 139°45'0 0.0
2016-May-23 14:33N 35°38' E 139°45'0 0.0
2016-May-23 13:34N 35°38' E 139°45'0 0.0
2016-May-23 12:33N 35°38' E 139°45'0 0.0
2016-May-23 11:33N 35°38' E 139°45'0 0.0
2016-May-23 10:33N 35°38' E 139°45'0 0.0
2016-May-23 09:33N 35°38' E 139°45'1 1.2
2016-May-23 08:34N 35°37' E 139°46'0 0.4
2016-May-23 07:34N 35°37' E 139°46'1 0.8
2016-May-23 06:33N 35°38' E 139°45'0 0.0
2016-May-23 05:33N 35°38' E 139°45'0 0.0
2016-May-23 04:34N 35°38' E 139°45'0 0.0
2016-May-23 03:33N 35°38' E 139°45'0 0.0
2016-May-23 02:34N 35°38' E 139°45'0 0.0
2016-May-23 01:33N 35°38' E 139°45'0 0.0
2016-May-23 00:34N 35°38' E 139°45'0 0.0
2016-May-22 23:33N 35°38' E 139°45'0 0.0
2016-May-22 22:33N 35°38' E 139°45'0 0.0
2016-May-22 21:33N 35°38' E 139°45'0 0.0
2016-May-22 20:33N 35°38' E 139°45'0 0.0
2016-May-22 19:33N 35°38' E 139°45'0 0.0
2016-May-22 18:33N 35°38' E 139°45'0 0.0
2016-May-22 17:33N 35°38' E 139°45'0 0.0
2016-May-22 16:34N 35°38' E 139°45'0 0.0
2016-May-22 15:33N 35°38' E 139°45'0 0.0
2016-May-22 14:34N 35°38' E 139°45'0 0.0
2016-May-22 13:33N 35°38' E 139°45'0 0.0
2016-May-22 12:34N 35°38' E 139°45'0 0.0
2016-May-22 11:33N 35°38' E 139°45'0 0.0
2016-May-22 10:33N 35°38' E 139°45'2 2.1
2016-May-22 09:34N 35°36' E 139°47'3 3.2
2016-May-22 08:33N 35°34' E 139°49'5 5.3
2016-May-22 07:34N 35°38' E 139°46'0 0.1
2016-May-22 06:33N 35°38' E 139°46'5 5.0
2016-May-22 05:33N 35°34' E 139°49'5 4.9
2016-May-22 04:33N 35°38' E 139°45'0 0.0
2016-May-22 03:34N 35°38' E 139°45'0 0.0
2016-May-22 02:33N 35°38' E 139°45'0 0.0
2016-May-22 01:34N 35°38' E 139°45'0 0.0
2016-May-22 00:33N 35°38' E 139°45'0 0.0
2016-May-21 23:33N 35°38' E 139°45'0 0.0
2016-May-21 22:34N 35°38' E 139°45'0 0.0
2016-May-21 21:34N 35°38' E 139°45'0 0.0
2016-May-21 20:33N 35°38' E 139°45'0 0.0
2016-May-21 19:33N 35°38' E 139°45'0 0.0
2016-May-21 18:34N 35°38' E 139°45'0 0.0
2016-May-21 17:33N 35°38' E 139°45'0 0.0
2016-May-21 16:33N 35°38' E 139°45'0 0.0
2016-May-21 15:34N 35°38' E 139°45'0 0.0
2016-May-21 14:33N 35°38' E 139°45'0 0.0
2016-May-21 13:34N 35°38' E 139°45'0 0.0
2016-May-21 12:33N 35°38' E 139°45'0 0.0
2016-May-21 11:33N 35°38' E 139°45'0 0.0
2016-May-21 10:34N 35°38' E 139°45'0 0.0
2016-May-21 09:34N 35°38' E 139°45'3 2.6
2016-May-21 08:34N 35°36' E 139°47'1 1.1
2016-May-21 07:33N 35°37' E 139°46'2 1.5
2016-May-21 06:33N 35°38' E 139°45'0 0.0
2016-May-21 05:33N 35°38' E 139°45'0 0.0
2016-May-21 04:34N 35°38' E 139°45'0 0.0
2016-May-21 03:33N 35°38' E 139°45'0 0.0
2016-May-21 02:33N 35°38' E 139°45'0 0.0
2016-May-21 01:34N 35°38' E 139°45'0 0.0
2016-May-21 00:34N 35°38' E 139°45'1 0.8
2016-May-20 23:33N 35°37' E 139°46'3 3.2
2016-May-20 22:33N 35°35' E 139°48'3 3.0
2016-May-20 21:34N 35°37' E 139°46'1 1.0
2016-May-20 20:33N 35°38' E 139°45'0 0.0
2016-May-20 19:33N 35°38' E 139°45'0 0.0
2016-May-20 18:34N 35°38' E 139°45'0 0.0
2016-May-20 17:34N 35°38' E 139°45'0 0.0
2016-May-20 16:34N 35°38' E 139°45'0 0.0
2016-May-20 15:33N 35°38' E 139°45'0 0.0
2016-May-20 14:33N 35°38' E 139°45'0 0.0
2016-May-20 13:34N 35°38' E 139°45'0 0.0
2016-May-20 12:33N 35°38' E 139°45'0 0.0
2016-May-20 11:34N 35°38' E 139°45'0 0.0
2016-May-20 10:33N 35°38' E 139°45'0 0.0
2016-May-20 09:33N 35°38' E 139°45'0 0.0
2016-May-20 08:33N 35°38' E 139°45'0 0.0
2016-May-20 07:34N 35°38' E 139°45'0 0.0
2016-May-20 06:34N 35°38' E 139°45'0 0.0
2016-May-20 05:33N 35°38' E 139°45'0 0.0
2016-May-20 04:34N 35°38' E 139°45'2 2.0
2016-May-20 03:34N 35°37' E 139°47'2 1.6
2016-May-20 02:34N 35°35' E 139°48'2 2.4
2016-May-20 01:34N 35°37' E 139°46'1 1.2
2016-May-20 00:33N 35°38' E 139°45'0 0.0
2016-May-19 23:33N 35°38' E 139°45'0 0.0
2016-May-19 22:33N 35°38' E 139°45'0 0.0
2016-May-19 21:34N 35°38' E 139°45'0 0.0
2016-May-19 20:34N 35°38' E 139°45'0 0.0
2016-May-19 19:34N 35°38' E 139°45'0 0.0
2016-May-19 18:34N 35°38' E 139°45'0 0.0
2016-May-19 17:34N 35°38' E 139°45'0 0.0
2016-May-19 16:34N 35°38' E 139°45'0 0.0
2016-May-19 15:33N 35°38' E 139°45'0 0.0
2016-May-19 14:33N 35°38' E 139°45'2 2.2
2016-May-19 13:34N 35°36' E 139°47'1 1.0
2016-May-19 12:34N 35°35' E 139°47'0 0.0
2016-May-19 11:34N 35°35' E 139°47'0 0.0
2016-May-19 10:34N 35°35' E 139°47'0 0.0
2016-May-19 09:34N 35°35' E 139°47'2 2.2
2016-May-19 08:33N 35°37' E 139°46'1 0.8
2016-May-19 07:33N 35°38' E 139°45'0 0.0
2016-May-19 06:34N 35°38' E 139°45'0 0.0
2016-May-19 05:33N 35°38' E 139°45'0 0.0
2016-May-19 04:34N 35°38' E 139°45'0 0.0
2016-May-19 03:34N 35°38' E 139°45'  
Track history (hours):
 
Tides and Currents Weather Stations Pressure Air Temp Water Temp Dewpoint Dewpoint Depression Visibility Wind Speed Wind Dir Waves Ship Positions

Asukamaru

Last reported at 2016-May-29 03:33 UTC. Time now 2016-May-29 03:51 UTC.
Position N 35°38' E 139°45'.

Length 31 m; draft 3 m.

Type: Tug. MMSI: 431001145.

Date/timePositionNaut miles runAvg speedWind from/ knotsBaromVisibWave heightAir tempDewpointWater temp
2016-May-29 03:33N 35°38' E 139°45'0 0.0
2016-May-29 02:34N 35°38' E 139°45'0 0.0
2016-May-29 01:34N 35°38' E 139°45'0 0.0
2016-May-29 00:33N 35°38' E 139°45'0 0.0
2016-May-28 23:33N 35°38' E 139°45'2 1.9
2016-May-28 22:34N 35°36' E 139°46'1 1.1
2016-May-28 21:34N 35°35' E 139°47'1 0.9
2016-May-28 20:33N 35°36' E 139°47'2 2.5
2016-May-28 19:34N 35°38' E 139°45'0 0.0
2016-May-28 18:33N 35°38' E 139°45'0 0.0
2016-May-28 17:34N 35°38' E 139°45'0 0.0
2016-May-28 16:33N 35°38' E 139°45'0 0.0
2016-May-28 15:33N 35°38' E 139°45'0 0.0
2016-May-28 14:33N 35°38' E 139°45'0 0.0
2016-May-28 13:33N 35°38' E 139°45'0 0.0
2016-May-28 12:34N 35°38' E 139°45'0 0.0
2016-May-28 11:34N 35°38' E 139°45'0 0.0
2016-May-28 10:33N 35°38' E 139°45'0 0.0
2016-May-28 09:33N 35°38' E 139°45'0 0.0
2016-May-28 08:33N 35°38' E 139°45'0 0.0
2016-May-28 07:34N 35°38' E 139°45'0 0.0
2016-May-28 06:33N 35°38' E 139°45'0 0.0
2016-May-28 05:33N 35°38' E 139°45'0 0.0
2016-May-28 04:33N 35°38' E 139°45'0 0.0
2016-May-28 03:33N 35°38' E 139°45'0 0.0
2016-May-28 02:33N 35°38' E 139°45'0 0.0
2016-May-28 01:34N 35°38' E 139°45'0 0.0
2016-May-28 00:34N 35°38' E 139°45'0 0.0
2016-May-27 23:34N 35°38' E 139°45'3 3.5
2016-May-27 22:34N 35°35' E 139°48'3 3.5
2016-May-27 21:34N 35°38' E 139°45'0 0.0
2016-May-27 20:33N 35°38' E 139°45'0 0.0
2016-May-27 19:34N 35°38' E 139°45'0 0.0
2016-May-27 18:33N 35°38' E 139°45'0 0.0
2016-May-27 17:33N 35°38' E 139°45'0 0.0
2016-May-27 16:33N 35°38' E 139°45'0 0.0
2016-May-27 15:33N 35°38' E 139°45'0 0.0
2016-May-27 14:34N 35°38' E 139°45'0 0.0
2016-May-27 13:34N 35°38' E 139°46'0 0.0
2016-May-27 12:34N 35°38' E 139°45'0 0.0
2016-May-27 11:34N 35°38' E 139°45'0 0.0
2016-May-27 10:33N 35°38' E 139°45'0 0.0
2016-May-27 09:33N 35°38' E 139°45'2 1.7
2016-May-27 08:33N 35°37' E 139°46'1 1.0
2016-May-27 07:33N 35°36' E 139°47'1 1.0
2016-May-27 06:33N 35°35' E 139°48'2 1.8
2016-May-27 05:33N 35°34' E 139°49'5 5.2
2016-May-27 04:34N 35°38' E 139°45'0 0.0
2016-May-27 03:33N 35°38' E 139°45'0 0.0
2016-May-27 02:33N 35°38' E 139°45'0 0.0
2016-May-27 01:33N 35°38' E 139°45'0 0.0
2016-May-27 00:34N 35°38' E 139°45'0 0.0
2016-May-26 23:34N 35°38' E 139°45'0 0.0
2016-May-26 22:33N 35°38' E 139°45'0 0.0
2016-May-26 21:33N 35°38' E 139°45'0 0.0
2016-May-26 20:33N 35°38' E 139°45'0 0.0
2016-May-26 19:33N 35°38' E 139°45'0 0.0
2016-May-26 18:33N 35°38' E 139°45'0 0.0
2016-May-26 17:33N 35°38' E 139°45'0 0.0
2016-May-26 16:34N 35°38' E 139°45'0 0.0
2016-May-26 15:33N 35°38' E 139°45'0 0.0
2016-May-26 14:33N 35°38' E 139°45'0 0.0
2016-May-26 13:33N 35°38' E 139°45'0 0.0
2016-May-26 12:34N 35°38' E 139°45'0 0.0
2016-May-26 11:34N 35°38' E 139°45'3 3.1
2016-May-26 10:34N 35°35' E 139°47'1 0.6
2016-May-26 09:34N 35°35' E 139°47'1 1.2
2016-May-26 08:33N 35°37' E 139°47'1 0.5
2016-May-26 07:34N 35°36' E 139°47'3 2.5
2016-May-26 06:34N 35°34' E 139°49'4 3.6
2016-May-26 05:33N 35°37' E 139°46'2 1.5
2016-May-26 04:34N 35°38' E 139°45'0 0.0
2016-May-26 03:34N 35°38' E 139°45'0 0.0
2016-May-26 02:33N 35°38' E 139°45'0 0.0
2016-May-26 01:34N 35°38' E 139°45'0 0.0
2016-May-26 00:34N 35°38' E 139°45'0 0.0
2016-May-25 23:33N 35°38' E 139°45'2 2.2
2016-May-25 22:33N 35°36' E 139°47'1 0.6
2016-May-25 21:33N 35°36' E 139°48'1 1.1
2016-May-25 20:34N 35°37' E 139°47'1 1.0
2016-May-25 19:33N 35°36' E 139°47'3 2.6
2016-May-25 18:34N 35°38' E 139°45'0 0.0
2016-May-25 17:33N 35°38' E 139°45'0 0.0
2016-May-25 16:34N 35°38' E 139°45'0 0.0
2016-May-25 15:33N 35°38' E 139°45'0 0.0
2016-May-25 14:33N 35°38' E 139°45'0 0.0
2016-May-25 13:34N 35°38' E 139°45'0 0.0
2016-May-25 12:33N 35°38' E 139°45'0 0.0
2016-May-25 11:33N 35°38' E 139°45'0 0.0
2016-May-25 10:33N 35°38' E 139°45'0 0.0
2016-May-25 09:33N 35°38' E 139°45'0 0.0
2016-May-25 08:33N 35°38' E 139°45'0 0.0
2016-May-25 07:29N 35°38' E 139°45'0 0.0
2016-May-25 05:33N 35°38' E 139°45'0 0.0
2016-May-25 04:33N 35°38' E 139°45'0 0.0
2016-May-25 03:33N 35°38' E 139°45'0 0.0
2016-May-25 02:33N 35°38' E 139°45'0 0.0
2016-May-25 01:33N 35°38' E 139°45'0 0.0
2016-May-25 00:34N 35°38' E 139°45'0 0.0
2016-May-24 23:33N 35°38' E 139°45'0 0.0
2016-May-24 22:34N 35°38' E 139°45'0 0.0
2016-May-24 21:33N 35°38' E 139°45'0 0.0
2016-May-24 20:33N 35°38' E 139°45'0 0.0
2016-May-24 19:33N 35°38' E 139°45'0 0.0
2016-May-24 18:34N 35°38' E 139°45'0 0.0
2016-May-24 17:33N 35°38' E 139°45'0 0.0
2016-May-24 16:33N 35°38' E 139°45'0 0.0
2016-May-24 15:33N 35°38' E 139°45'0 0.0
2016-May-24 14:33N 35°38' E 139°45'0 0.0
2016-May-24 13:33N 35°38' E 139°45'0 0.0
2016-May-24 12:34N 35°38' E 139°45'0 0.0
2016-May-24 11:34N 35°38' E 139°45'0 0.0
2016-May-24 10:33N 35°38' E 139°45'0 0.0
2016-May-24 09:34N 35°38' E 139°45'1 0.9
2016-May-24 08:33N 35°37' E 139°46'1 0.9
2016-May-24 07:33N 35°38' E 139°45'0 0.0
2016-May-24 06:34N 35°38' E 139°45'0 0.0
2016-May-24 05:34N 35°38' E 139°45'0 0.0
2016-May-24 04:34N 35°38' E 139°45'0 0.0
2016-May-24 03:33N 35°38' E 139°45'0 0.0
2016-May-24 02:34N 35°38' E 139°45'0 0.0
2016-May-24 01:33N 35°38' E 139°45'0 0.0
2016-May-24 00:33N 35°38' E 139°45'0 0.0
2016-May-23 23:33N 35°38' E 139°45'1 0.8
2016-May-23 22:33N 35°37' E 139°46'5 4.5
2016-May-23 21:33N 35°34' E 139°49'4 3.8
2016-May-23 20:33N 35°37' E 139°46'2 1.5
2016-May-23 19:34N 35°38' E 139°45'0 0.0
2016-May-23 18:34N 35°38' E 139°45'0 0.0
2016-May-23 17:34N 35°38' E 139°45'0 0.0
2016-May-23 16:34N 35°38' E 139°45'0 0.0
2016-May-23 15:34N 35°38' E 139°45'0 0.0
2016-May-23 14:33N 35°38' E 139°45'0 0.0
2016-May-23 13:34N 35°38' E 139°45'0 0.0
2016-May-23 12:33N 35°38' E 139°45'0 0.0
2016-May-23 11:33N 35°38' E 139°45'0 0.0
2016-May-23 10:33N 35°38' E 139°45'0 0.0
2016-May-23 09:33N 35°38' E 139°45'1 1.2
2016-May-23 08:34N 35°37' E 139°46'0 0.4
2016-May-23 07:34N 35°37' E 139°46'1 0.8
2016-May-23 06:33N 35°38' E 139°45'0 0.0
2016-May-23 05:33N 35°38' E 139°45'0 0.0
2016-May-23 04:34N 35°38' E 139°45'0 0.0
2016-May-23 03:33N 35°38' E 139°45'0 0.0
2016-May-23 02:34N 35°38' E 139°45'0 0.0
2016-May-23 01:33N 35°38' E 139°45'0 0.0
2016-May-23 00:34N 35°38' E 139°45'0 0.0
2016-May-22 23:33N 35°38' E 139°45'0 0.0
2016-May-22 22:33N 35°38' E 139°45'0 0.0
2016-May-22 21:33N 35°38' E 139°45'0 0.0
2016-May-22 20:33N 35°38' E 139°45'0 0.0
2016-May-22 19:33N 35°38' E 139°45'0 0.0
2016-May-22 18:33N 35°38' E 139°45'0 0.0
2016-May-22 17:33N 35°38' E 139°45'0 0.0
2016-May-22 16:34N 35°38' E 139°45'0 0.0
2016-May-22 15:33N 35°38' E 139°45'0 0.0
2016-May-22 14:34N 35°38' E 139°45'0 0.0
2016-May-22 13:33N 35°38' E 139°45'0 0.0
2016-May-22 12:34N 35°38' E 139°45'0 0.0
2016-May-22 11:33N 35°38' E 139°45'0 0.0
2016-May-22 10:33N 35°38' E 139°45'2 2.1
2016-May-22 09:34N 35°36' E 139°47'3 3.2
2016-May-22 08:33N 35°34' E 139°49'5 5.3
2016-May-22 07:34N 35°38' E 139°46'0 0.1
2016-May-22 06:33N 35°38' E 139°46'5 5.0
2016-May-22 05:33N 35°34' E 139°49'5 4.9
2016-May-22 04:33N 35°38' E 139°45'0 0.0
2016-May-22 03:34N 35°38' E 139°45'0 0.0
2016-May-22 02:33N 35°38' E 139°45'0 0.0
2016-May-22 01:34N 35°38' E 139°45'0 0.0
2016-May-22 00:33N 35°38' E 139°45'0 0.0
2016-May-21 23:33N 35°38' E 139°45'0 0.0
2016-May-21 22:34N 35°38' E 139°45'0 0.0
2016-May-21 21:34N 35°38' E 139°45'0 0.0
2016-May-21 20:33N 35°38' E 139°45'0 0.0
2016-May-21 19:33N 35°38' E 139°45'0 0.0
2016-May-21 18:34N 35°38' E 139°45'0 0.0
2016-May-21 17:33N 35°38' E 139°45'0 0.0
2016-May-21 16:33N 35°38' E 139°45'0 0.0
2016-May-21 15:34N 35°38' E 139°45'0 0.0
2016-May-21 14:33N 35°38' E 139°45'0 0.0
2016-May-21 13:34N 35°38' E 139°45'0 0.0
2016-May-21 12:33N 35°38' E 139°45'0 0.0
2016-May-21 11:33N 35°38' E 139°45'0 0.0
2016-May-21 10:34N 35°38' E 139°45'0 0.0
2016-May-21 09:34N 35°38' E 139°45'3 2.6
2016-May-21 08:34N 35°36' E 139°47'1 1.1
2016-May-21 07:33N 35°37' E 139°46'2 1.5
2016-May-21 06:33N 35°38' E 139°45'0 0.0
2016-May-21 05:33N 35°38' E 139°45'0 0.0
2016-May-21 04:34N 35°38' E 139°45'0 0.0
2016-May-21 03:33N 35°38' E 139°45'0 0.0
2016-May-21 02:33N 35°38' E 139°45'0 0.0
2016-May-21 01:34N 35°38' E 139°45'0 0.0
2016-May-21 00:34N 35°38' E 139°45'1 0.8
2016-May-20 23:33N 35°37' E 139°46'3 3.2
2016-May-20 22:33N 35°35' E 139°48'3 3.0
2016-May-20 21:34N 35°37' E 139°46'1 1.0
2016-May-20 20:33N 35°38' E 139°45'0 0.0
2016-May-20 19:33N 35°38' E 139°45'0 0.0
2016-May-20 18:34N 35°38' E 139°45'0 0.0
2016-May-20 17:34N 35°38' E 139°45'0 0.0
2016-May-20 16:34N 35°38' E 139°45'0 0.0
2016-May-20 15:33N 35°38' E 139°45'0 0.0
2016-May-20 14:33N 35°38' E 139°45'0 0.0
2016-May-20 13:34N 35°38' E 139°45'0 0.0
2016-May-20 12:33N 35°38' E 139°45'0 0.0
2016-May-20 11:34N 35°38' E 139°45'0 0.0
2016-May-20 10:33N 35°38' E 139°45'0 0.0
2016-May-20 09:33N 35°38' E 139°45'0 0.0
2016-May-20 08:33N 35°38' E 139°45'0 0.0
2016-May-20 07:34N 35°38' E 139°45'0 0.0
2016-May-20 06:34N 35°38' E 139°45'0 0.0
2016-May-20 05:33N 35°38' E 139°45'0 0.0
2016-May-20 04:34N 35°38' E 139°45'2 2.0
2016-May-20 03:34N 35°37' E 139°47'2 1.6
2016-May-20 02:34N 35°35' E 139°48'2 2.4
2016-May-20 01:34N 35°37' E 139°46'1 1.2
2016-May-20 00:33N 35°38' E 139°45'0 0.0
2016-May-19 23:33N 35°38' E 139°45'0 0.0
2016-May-19 22:33N 35°38' E 139°45'0 0.0
2016-May-19 21:34N 35°38' E 139°45'0 0.0
2016-May-19 20:34N 35°38' E 139°45'0 0.0
2016-May-19 19:34N 35°38' E 139°45'0 0.0
2016-May-19 18:34N 35°38' E 139°45'0 0.0
2016-May-19 17:34N 35°38' E 139°45'0 0.0
2016-May-19 16:34N 35°38' E 139°45'0 0.0
2016-May-19 15:33N 35°38' E 139°45'0 0.0
2016-May-19 14:33N 35°38' E 139°45'2 2.2
2016-May-19 13:34N 35°36' E 139°47'1 1.0
2016-May-19 12:34N 35°35' E 139°47'0 0.0
2016-May-19 11:34N 35°35' E 139°47'0 0.0
2016-May-19 10:34N 35°35' E 139°47'0 0.0
2016-May-19 09:34N 35°35' E 139°47'2 2.2
2016-May-19 08:33N 35°37' E 139°46'1 0.8
2016-May-19 07:33N 35°38' E 139°45'0 0.0
2016-May-19 06:34N 35°38' E 139°45'0 0.0
2016-May-19 05:33N 35°38' E 139°45'0 0.0
2016-May-19 04:34N 35°38' E 139°45'0 0.0
2016-May-19 03:34N 35°38' E 139°45'  

Dump ship's entire track history